Flight Track Log - Related Links

Times and Time Zones

All times are in EDT time to prevent confusion due to time zone crossing. See the SWA268 flight status page for this flight to view local times or setup timezone preferences in your user account.


Time Position Orientation Groundspeed Altitude Reporting Facility
EDT Latitude Longitude Course Direction KTS MPH feet Rate Location/Type
Sun 02:28:06 PM 30.1297 -97.5967 101° East 224 258 4,100  Level Houston Center
Sun 02:29:08 PM 30.1436 -97.5169 79° East 256 295 7,300 3,145 Climbing Houston Center
Sun 02:30:10 PM 30.1814 -97.4400 60° Northeast 272 313 10,600 2,274 Climbing Houston Center
Sun 02:31:12 PM 30.2322 -97.3336 61° Northeast 320 368 12,000 1,839 Climbing Houston Center
Sun 02:32:00 PM 30.0593 -96.8560 101° East  Level Estimated
Sun 02:32:14 PM 30.2775 -97.2372 61° Northeast 336 387 14,400  Level Houston Center
Sun 02:33:00 PM 30.0363 -96.7205 101° East  Level Estimated
Sun 02:33:16 PM 30.3261 -97.1356 61° Northeast 354 407 17,600  Level Houston Center
Sun 02:34:19 PM 30.3486 -97.0131 78° East 398 458 19,900 2,112 Climbing Houston Center
Sun 02:35:21 PM 30.3408 -96.8744 94° East 423 487 22,000 2,226 Climbing Houston Center
Sun 02:36:23 PM 30.3311 -96.7278 94° East 444 511 24,500 2,177 Climbing Houston Center
Sun 02:37:25 PM 30.3200 -96.5519 94° East 462 532 26,500 1,790 Climbing Houston Center
Sun 02:38:27 PM 30.3103 -96.3919 94° East 485 558 28,200 1,645 Climbing Houston Center
Sun 02:39:29 PM 30.3000 -96.2269 94° East 505 581 29,900 1,597 Climbing Houston Center
Sun 02:40:31 PM 30.2858 -96.0592 96° East 516 594 31,500 1,597 Climbing Houston Center
Sun 02:41:33 PM 30.2236 -95.9208 117° Southeast 503 579 33,200 1,645 Climbing Houston Center
Sun 02:42:35 PM 30.1597 -95.7789 117° Southeast 499 574 34,900 1,584 Climbing Houston Center
Sun 02:43:38 PM 30.0803 -95.6100 118° Southeast 499 574 36,500 1,152 Climbing Houston Center
Sun 02:44:40 PM 30.0144 -95.4669 118° Southeast 502 578 37,300 919 Climbing Houston Center
Sun 02:45:42 PM 29.9558 -95.3156 114° Southeast 514 592 38,400 823 Climbing Houston Center
Sun 02:46:44 PM 29.9328 -95.1489 99° East 520 598 39,000 290 Climbing Houston Center
Sun 02:47:46 PM 29.9103 -94.9836 99° East 516 594 39,000  Level Houston Center
Sun 02:48:48 PM 29.8894 -94.8178 98° East 518 596 39,000  Level Houston Center
Sun 02:49:50 PM 29.8675 -94.6561 99° East 511 588 39,000  Level Houston Center
Sun 02:50:52 PM 29.8419 -94.4628 99° East 507 583 39,000  Level Houston Center
Sun 02:51:54 PM 29.8194 -94.3008 99° East 511 588 39,000  Level Houston Center
Sun 02:52:57 PM 29.7981 -94.1447 99° East 510 587 39,000  Level Houston Center
Sun 02:53:59 PM 29.7758 -93.9847 99° East 509 586 39,000  Level Houston Center
Sun 02:55:01 PM 29.7539 -93.8244 99° East 510 587 39,000  Level Houston Center
Sun 02:56:03 PM 29.7272 -93.6350 99° East 506 582 39,000  Level Houston Center
Sun 02:57:05 PM 29.7033 -93.4758 100° East 510 587 39,000  Level Houston Center
Sun 02:58:07 PM 29.6800 -93.3153 99° East 513 590 39,000  Level Houston Center
Sun 02:59:09 PM 29.6581 -93.1558 99° East 511 588 39,000  Level Houston Center
Sun 03:00:11 PM 29.6347 -92.9956 99° East 512 589 39,000  Level Houston Center
Sun 03:01:13 PM 29.6069 -92.8064 100° East 505 581 39,000  Level Houston Center
Sun 03:02:16 PM 29.5833 -92.6500 100° East 500 575 39,000  Level Houston Center
Sun 03:03:18 PM 29.5592 -92.4933 100° East 499 574 39,000  Level Houston Center
Sun 03:04:20 PM 29.5350 -92.3375 100° East 499 574 39,000  Level Houston Center
Sun 03:05:22 PM 29.5106 -92.1806 100° East 500 575 39,000  Level Houston Center
Sun 03:06:24 PM 29.4828 -91.9914 100° East 502 578 39,000  Level Houston Center
Sun 03:07:26 PM 29.4575 -91.8342 100° East 501 577 39,000  Level Houston Center
Sun 03:08:28 PM 29.4333 -91.6772 100° East 500 575 39,000  Level Houston Center
Sun 03:09:30 PM 29.4081 -91.5211 100° East 499 574 39,000  Level Houston Center
Sun 03:10:33 PM 29.3833 -91.3639 100° East 502 578 39,000  Level Houston Center
Sun 03:11:35 PM 29.3533 -91.1747 100° East 504 580 39,000  Level Houston Center
Sun 03:12:37 PM 29.3286 -91.0164 100° East 506 582 39,000  Level Houston Center
Sun 03:13:39 PM 29.3028 -90.8586 101° East 507 583 39,000  Level Houston Center
Sun 03:14:41 PM 29.2756 -90.7008 101° East 507 583 39,000  Level Houston Center
Sun 03:15:43 PM 29.2386 -90.5469 105° East 506 582 39,000  Level Houston Center
Sun 03:16:45 PM 29.1878 -90.3967 111° Southeast 509 586 39,000  Level Houston Center
Sun 03:17:47 PM 29.1292 -90.2172 110° East 505 581 39,000  Level Houston Center
Sun 03:18:49 PM 29.0786 -90.0656 111° Southeast 511 588 39,000  Level Houston Center
Sun 03:19:52 PM 29.0292 -89.9156 111° Southeast 508 585 39,000  Level Houston Center
Sun 03:20:54 PM 28.9792 -89.7675 111° Southeast 504 580 39,000  Level Houston Center
Sun 03:21:56 PM 28.9289 -89.6178 111° Southeast 506 582 39,000  Level Houston Center
Sun 03:22:58 PM 28.8689 -89.4381 111° Southeast 507 583 39,000  Level Houston Center
Sun 03:24:00 PM 28.8200 -89.2917 111° Southeast 501 577 39,000  Level Houston Center
Sun 03:25:02 PM 28.7700 -89.1453 111° Southeast 498 573 39,000  Level Houston Center
Sun 03:26:04 PM 28.7192 -88.9983 111° Southeast 498 573 39,000  Level Houston Center
Sun 03:27:06 PM 28.6700 -88.8514 111° Southeast 498 573 39,000  Level Houston Center
Sun 03:28:08 PM 28.6092 -88.6783 112° Southeast 495 570 39,000  Level Houston Center
Sun 03:29:11 PM 28.5575 -88.5322 112° Southeast 496 571 39,000  Level Houston Center
Sun 03:29:28 PM 28.5431 -88.4994 117° Southeast 524 603 39,000  Level Jacksonville Center
Sun 03:30:28 PM 28.4908 -88.3500 112° Southeast 518 596 39,000  Level Jacksonville Center
Sun 03:31:28 PM 28.4389 -88.1986 111° Southeast 506 582 39,000  Level Jacksonville Center
Sun 03:32:28 PM 28.3903 -88.0617 112° Southeast 501 577 39,000  Level Jacksonville Center
Sun 03:33:28 PM 28.3464 -87.9039 108° East 501 577 39,000  Level Jacksonville Center
Sun 03:34:28 PM 28.3042 -87.7581 108° East 479 551 39,000  Level Jacksonville Center
Sun 03:35:28 PM 28.2653 -87.6242 108° East 477 549 39,000  Level Jacksonville Center
Sun 03:36:28 PM 28.2206 -87.4736 109° East 489 563 39,000  Level Jacksonville Center
Sun 03:37:28 PM 28.1778 -87.3306 109° East 494 568 39,000  Level Jacksonville Center
Sun 03:38:28 PM 28.1347 -87.1850 109° East 490 564 39,000  Level Jacksonville Center
Sun 03:39:28 PM 28.0894 -87.0375 109° East 490 564 39,000  Level Jacksonville Center
Sun 03:40:28 PM 28.0461 -86.8922 109° East 489 563 39,000  Level Jacksonville Center
Sun 03:41:28 PM 28.0044 -86.7494 108° East 496 571 39,000  Level Jacksonville Center
Sun 03:42:28 PM 27.9547 -86.5972 110° East 485 558 39,000  Level Jacksonville Center
Sun 03:43:28 PM 27.9147 -86.4597 108° East 492 566 39,000  Level Jacksonville Center
Sun 03:44:28 PM 27.8689 -86.3078 109° East 488 562 39,000  Level Jacksonville Center
Sun 03:45:28 PM 27.8247 -86.1656 109° East 495 570 39,000  Level Jacksonville Center
Sun 03:46:28 PM 27.7822 -86.0306 110° East 480 552 39,000  Level Jacksonville Center
Sun 03:47:28 PM 27.7375 -85.8908 110° East 480 552 39,000 -151 Level Jacksonville Center
Sun 03:48:27 PM 27.6931 -85.7283 107° East 475 547 38,700 -655 Descending Miami Center
Sun 03:49:27 PM 27.6494 -85.5894 109° East 475 547 37,700 -950 Descending Miami Center
Sun 03:50:27 PM 27.5997 -85.4500 112° Southeast 475 547 36,800 -950 Descending Miami Center
Sun 03:51:27 PM 27.5558 -85.3111 110° East 475 547 35,800 -950 Descending Miami Center
Sun 03:52:27 PM 27.5136 -85.1747 109° East 470 541 34,900 -950 Descending Miami Center
Sun 03:53:27 PM 27.4733 -85.0408 109° East 457 526 33,900 -1,000 Descending Miami Center
Sun 03:54:27 PM 27.4247 -84.9044 112° Southeast 457 526 32,900 -450 Descending Miami Center
Sun 03:55:27 PM 27.3864 -84.7708 108° East 457 526 33,000 50 Climbing Miami Center
Sun 03:56:27 PM 27.3436 -84.6372 110° East 457 526 33,000  Level Miami Center
Sun 03:57:27 PM 27.2986 -84.5036 111° Southeast 457 526 33,000  Level Miami Center
Sun 03:58:27 PM 27.2575 -84.3725 109° East 457 526 33,000  Level Miami Center
Sun 03:59:27 PM 27.2183 -84.2417 109° East 452 520 33,000  Level Miami Center
Sun 04:00:27 PM 27.1728 -84.1106 111° Southeast 452 520 33,000  Level Miami Center
Sun 04:01:27 PM 27.1317 -83.9775 109° East 452 520 33,000  Level Miami Center
Sun 04:02:27 PM 27.0819 -83.8392 112° Southeast 452 520 33,000  Level Miami Center
Sun 04:03:27 PM 27.0403 -83.7086 110° East 458 527 33,000  Level Miami Center
Sun 04:04:27 PM 26.9986 -83.5758 109° East 453 521 33,000  Level Miami Center
Sun 04:05:27 PM 26.9564 -83.4475 110° East 453 521 33,000 -300 Level Miami Center
Sun 04:06:27 PM 26.9103 -83.3147 111° Southeast 453 521 32,400 -800 Descending Miami Center
Sun 04:07:27 PM 26.8681 -83.1844 110° East 447 514 31,400 -1,000 Descending Miami Center
Sun 04:08:27 PM 26.8233 -83.0564 111° Southeast 447 514 30,400 -1,000 Descending Miami Center
Sun 04:09:27 PM 26.7808 -82.9286 110° East 442 509 29,400 -1,000 Descending Miami Center
Sun 04:10:27 PM 26.7383 -82.7964 110° East 442 509 28,400 -1,000 Descending Miami Center
Sun 04:11:27 PM 26.6953 -82.6756 112° Southeast 437 503 27,400 -1,000 Descending Miami Center
Sun 04:12:27 PM 26.6542 -82.5528 111° Southeast 432 497 26,400 -1,000 Descending Miami Center
Sun 04:13:27 PM 26.6128 -82.4325 111° Southeast 424 488 25,400 -1,000 Descending Miami Center
Sun 04:14:27 PM 26.5717 -82.3122 111° Southeast 419 482 24,400 -1,000 Descending Miami Center
Sun 04:15:27 PM 26.5339 -82.2014 111° Southeast 419 482 23,400 -1,050 Descending Miami Center
Sun 04:16:27 PM 26.4964 -82.0883 110° East 411 473 22,300 -1,050 Descending Miami Center
Sun 04:17:27 PM 26.4542 -81.9772 113° Southeast 394 453 21,300 -950 Descending Miami Center
Sun 04:18:27 PM 26.4225 -81.8739 109° East 388 447 20,400 -950 Descending Miami Center
Sun 04:19:27 PM 26.3864 -81.7658 110° East 381 438 19,400 -1,000 Descending Miami Center
Sun 04:20:27 PM 26.3444 -81.6481 112° Southeast 375 432 18,400 -950 Descending Miami Center
Sun 04:21:27 PM 26.3083 -81.5403 110° East 370 426 17,500 -1,350 Descending Miami Center
Sun 04:22:27 PM 26.2717 -81.4392 112° Southeast 364 419 15,700 -1,850 Descending Miami Center
Sun 04:23:27 PM 26.2394 -81.3383 110° East 351 404 13,800 -2,000 Descending Miami Center
Sun 04:24:12 PM 26.2042 -81.2606 117° Southeast 339 390 12,200 -1,900 Descending Miami Center
Sun 04:24:27 PM 26.2025 -81.2422 96° East 346 398 11,900 -1,855 Descending Miami Center
Sun 04:25:07 PM 26.1711 -81.1739 117° Southeast 324 373 10,500 -1,600 Descending Miami Center
Sun 04:25:27 PM 26.1678 -81.1506 99° East 335 386 10,300 -581 Descending Miami Center
Sun 04:26:09 PM 26.1425 -81.0850 113° Southeast 273 314 9,900 -600 Descending Miami Center
Sun 04:26:27 PM 26.1389 -81.0664 102° East 309 356 9,700 -1,377 Descending Miami Center
Sun 04:27:10 PM 26.1133 -81.0075 116° Southeast 271 312 8,500 -1,400 Descending Miami Center
Sun 04:27:27 PM 26.1119 -80.9889 95° East 286 329 8,300 -1,075 Descending Miami Center
Sun 04:28:17 PM 26.1014 -80.9192 100° East 265 305 7,300 -1,081 Descending Miami Center
Sun 04:29:18 PM 26.0972 -80.8336 93° East 260 299 6,300 -667 Descending Miami Center
Sun 04:30:14 PM 26.0908 -80.7617 96° East 258 297 6,000 -154 Descending Miami Center
Sun 04:31:15 PM 26.0847 -80.6828 95° East 256 295 6,000  Level Miami Center
Sun 04:32:22 PM 26.0806 -80.5947 93° East 251 289 6,000 -295 Level Miami Center
Sun 04:34:18 PM 26.0756 -80.4606 92° East 230 265 5,100 -620 Descending Miami Center
Sun 04:35:26 PM 26.0753 -80.3864 90° East 192 221 4,100 -968 Descending Miami Center
Sun 04:36:22 PM 26.0767 -80.3356 88° East 175 201 3,100 -1,077 Descending Miami Center
Sun 04:37:23 PM 26.0736 -80.2847 94° East 160 184 2,000 -931 Descending Miami Center
Sun 04:38:18 PM 26.0747 -80.2431 88° East 144 166 1,300 -738 Descending Miami Center
Sun 04:39:25 PM 26.0736 -80.1992 92° East 126 145 500 -716 Descending Miami Center
Sun 04:41:00 PM 26.0667 -80.1500 180° South  Level FlightAware Approximate

Login

Don't have an account? Register now (free) for customized features, flight alerts, and more!